createdAt,value
2023-04-05T00:05:50.501Z,85
2023-04-05T00:15:50.663Z,85
2023-04-05T00:25:51.382Z,85
2023-04-05T00:35:52.091Z,85
2023-04-05T00:45:53.220Z,86
2023-04-05T01:05:54.133Z,88
2023-04-05T01:15:54.526Z,88
2023-04-05T01:25:55.150Z,88
2023-04-05T01:35:55.994Z,88
2023-04-05T01:45:56.570Z,89
2023-04-05T01:55:56.765Z,89
2023-04-05T02:05:57.377Z,89
2023-04-05T02:15:57.849Z,91
2023-04-05T02:25:58.309Z,91
2023-04-05T03:56:04.362Z,94
2023-04-05T05:36:10.806Z,94
2023-04-05T05:46:11.188Z,95
2023-04-05T05:56:11.472Z,95
2023-04-05T06:26:13.613Z,91
2023-04-05T06:36:14.407Z,90
2023-04-05T06:46:15.396Z,90
2023-04-05T07:16:17.092Z,83
2023-04-05T10:06:26.257Z,56
2023-04-05T10:46:28.664Z,51
2023-04-05T12:26:34.486Z,46
2023-04-05T13:06:36.985Z,45
2023-04-05T13:16:37.150Z,46
2023-04-05T13:26:37.766Z,47
2023-04-05T13:36:38.379Z,47
2023-04-05T13:46:38.490Z,46
2023-04-05T13:56:38.849Z,45
2023-04-05T14:06:39.319Z,45
2023-04-05T14:16:39.828Z,46
2023-04-05T15:16:42.450Z,44
2023-04-05T15:26:42.540Z,44
2023-04-05T15:36:42.842Z,45
2023-04-05T15:46:43.721Z,44
2023-04-05T15:56:44.216Z,45
2023-04-05T16:06:44.993Z,45
2023-04-05T16:16:53.437Z,44
2023-04-05T16:26:46.252Z,44
2023-04-05T16:36:46.799Z,43
2023-04-05T16:46:47.438Z,43
2023-04-05T17:06:48.246Z,44
2023-04-05T17:56:51.926Z,48
2023-04-05T18:06:52.872Z,49
2023-04-05T18:16:53.668Z,50
2023-04-05T18:26:54.737Z,51
2023-04-05T18:36:55.054Z,53
2023-04-05T18:46:56.084Z,54
2023-04-05T18:56:56.808Z,56
2023-04-05T19:06:57.905Z,58
2023-04-05T19:16:58.606Z,61
2023-04-05T19:26:59.457Z,62
2023-04-05T19:36:59.721Z,63
2023-04-05T19:47:00.849Z,65
2023-04-05T19:57:01.603Z,66
2023-04-05T20:07:01.852Z,67
2023-04-05T20:17:02.716Z,69
2023-04-05T20:27:03.709Z,70
2023-04-05T20:37:03.742Z,72
2023-04-05T20:47:04.516Z,72
2023-04-05T21:07:05.252Z,76
2023-04-05T21:17:05.663Z,75
2023-04-05T21:27:05.963Z,76
2023-04-05T22:07:08.218Z,78
2023-04-05T22:27:08.607Z,79
2023-04-05T22:57:32.243Z,81
2023-04-05T23:27:18.241Z,83
2023-04-05T23:37:19.121Z,83
2023-04-05T23:47:20.096Z,84
2023-04-05T23:57:20.298Z,84
